createdAt,value
2023-03-26T00:00:19.943Z,0.77
2023-03-26T00:02:54.386Z,1.38
2023-03-26T00:05:27.265Z,0.90
2023-03-26T00:08:00.724Z,0.90
2023-03-26T00:10:33.828Z,0.85
2023-03-26T00:13:07.800Z,1.42
2023-03-26T00:15:41.645Z,0.70
2023-03-26T00:18:15.954Z,1.08
2023-03-26T00:20:49.284Z,0.95
2023-03-26T00:23:22.164Z,0.80
2023-03-26T00:25:56.135Z,0.90
2023-03-26T00:28:29.834Z,1.00
2023-03-26T00:31:06.209Z,0.90
2023-03-26T00:33:41.829Z,0.88
2023-03-26T00:36:17.563Z,0.90
2023-03-26T00:38:52.958Z,1.05
2023-03-26T00:41:31.217Z,0.80
2023-03-26T00:44:04.401Z,0.77
2023-03-26T00:46:37.718Z,0.80
2023-03-26T00:49:14.977Z,0.98
2023-03-26T00:51:48.190Z,1.08
2023-03-26T00:54:21.368Z,1.05
2023-03-26T00:56:56.054Z,1.23
2023-03-26T00:59:30.608Z,1.20
2023-03-26T01:02:04.370Z,0.98
2023-03-26T01:04:39.551Z,0.93
2023-03-26T01:07:16.808Z,1.20
2023-03-26T01:09:52.318Z,1.13
2023-03-26T01:12:27.551Z,0.95
2023-03-26T01:15:03.977Z,1.20
2023-03-26T01:17:38.090Z,1.10
2023-03-26T01:20:17.073Z,0.93
2023-03-26T01:22:53.724Z,0.98
2023-03-26T01:25:33.738Z,1.02
2023-03-26T01:28:12.571Z,0.90
2023-03-26T01:30:53.779Z,1.05
2023-03-26T01:33:36.499Z,1.00
2023-03-26T01:36:16.632Z,1.23
2023-03-26T01:38:54.516Z,1.35
2023-03-26T01:41:33.429Z,1.08
2023-03-26T01:44:12.763Z,1.20
2023-03-26T01:46:47.698Z,1.10
2023-03-26T01:49:21.369Z,1.00
2023-03-26T01:51:55.240Z,1.42
2023-03-26T01:54:31.230Z,1.35
2023-03-26T01:57:14.118Z,1.15
2023-03-26T02:00:04.619Z,1.40
2023-03-26T02:03:03.096Z,1.15
2023-03-26T02:05:58.526Z,1.05
2023-03-26T02:08:36.749Z,1.10
2023-03-26T02:11:14.307Z,1.85
2023-03-26T02:13:48.926Z,1.20
2023-03-26T02:16:22.196Z,0.98
2023-03-26T02:18:55.858Z,1.20
2023-03-26T02:21:29.143Z,1.33
2023-03-26T02:24:04.291Z,1.60
2023-03-26T02:26:42.284Z,1.30
2023-03-26T02:29:20.703Z,1.10
2023-03-26T02:31:54.776Z,1.38
2023-03-26T02:34:27.797Z,1.25
2023-03-26T02:37:01.106Z,1.30
2023-03-26T02:39:34.241Z,1.40
2023-03-26T02:42:16.154Z,1.10
2023-03-26T02:44:54.803Z,1.30
2023-03-26T02:47:46.494Z,1.33
2023-03-26T02:50:38.327Z,1.35
2023-03-26T02:53:43.644Z,1.35
2023-03-26T02:56:39.207Z,1.60
2023-03-26T02:59:29.400Z,1.38
2023-03-26T03:02:29.338Z,2.00
2023-03-26T03:05:09.597Z,1.45
2023-03-26T03:07:42.422Z,1.25
2023-03-26T03:10:15.833Z,1.05
2023-03-26T03:13:07.893Z,2.40
2023-03-26T03:15:40.996Z,1.65
2023-03-26T03:18:15.315Z,1.90
2023-03-26T03:20:48.483Z,1.67
2023-03-26T03:23:21.993Z,1.30
2023-03-26T03:25:58.656Z,1.60
2023-03-26T03:28:31.815Z,1.33
2023-03-26T03:31:05.262Z,1.20
2023-03-26T03:33:42.858Z,1.33
2023-03-26T03:36:20.318Z,1.65
2023-03-26T03:38:56.387Z,1.42
2023-03-26T03:41:30.091Z,1.63
2023-03-26T03:44:03.486Z,1.45
2023-03-26T03:46:38.590Z,1.27
2023-03-26T03:49:13.011Z,1.30
2023-03-26T03:51:46.312Z,1.10
2023-03-26T03:54:28.966Z,1.30
2023-03-26T03:57:34.983Z,1.40
2023-03-26T04:00:13.119Z,1.30
2023-03-26T04:02:48.579Z,1.42
2023-03-26T04:05:24.170Z,1.33
2023-03-26T04:07:57.735Z,1.10
2023-03-26T04:10:34.057Z,1.10
2023-03-26T04:13:19.400Z,1.02
2023-03-26T04:16:17.718Z,1.42
2023-03-26T04:18:50.612Z,1.10
2023-03-26T04:21:26.349Z,1.20
2023-03-26T04:24:01.713Z,2.17
2023-03-26T04:26:54.636Z,1.08
2023-03-26T04:29:42.949Z,1.10
2023-03-26T04:32:26.758Z,1.02
2023-03-26T04:35:03.596Z,1.10
2023-03-26T04:37:40.611Z,1.80
2023-03-26T04:40:23.070Z,1.60
2023-03-26T04:43:06.905Z,1.85
2023-03-26T04:45:58.563Z,1.73
2023-03-26T04:48:33.994Z,1.25
2023-03-26T04:51:10.125Z,2.15
2023-03-26T04:53:46.274Z,2.00
2023-03-26T04:56:54.522Z,1.55
2023-03-26T04:59:37.023Z,1.38
2023-03-26T05:02:14.024Z,1.42
2023-03-26T05:04:57.160Z,1.50
2023-03-26T05:07:33.517Z,1.20
2023-03-26T05:10:10.178Z,1.30
2023-03-26T05:12:54.864Z,1.80
2023-03-26T05:15:31.795Z,1.90
2023-03-26T05:18:14.880Z,1.85
2023-03-26T05:20:52.173Z,1.65
2023-03-26T05:23:25.241Z,1.10
2023-03-26T05:26:10.236Z,1.48
2023-03-26T05:28:44.129Z,1.20
2023-03-26T05:31:23.765Z,2.00
2023-03-26T05:34:01.144Z,2.33
2023-03-26T05:36:34.326Z,1.50
2023-03-26T05:39:38.078Z,1.15
2023-03-26T05:42:25.331Z,1.48
2023-03-26T05:45:16.711Z,1.40
2023-03-26T05:47:51.632Z,1.58
2023-03-26T05:50:25.527Z,2.22
2023-03-26T05:53:02.869Z,1.88
2023-03-26T05:55:58.729Z,1.40
2023-03-26T05:58:52.124Z,1.40
2023-03-26T06:01:44.800Z,1.38
2023-03-26T06:04:41.068Z,1.60
2023-03-26T06:07:40.527Z,1.15
2023-03-26T06:10:18.469Z,1.55
2023-03-26T06:12:52.493Z,1.20
2023-03-26T06:15:27.050Z,1.02
2023-03-26T06:18:05.889Z,1.80
2023-03-26T06:20:38.766Z,1.90
2023-03-26T06:23:20.583Z,2.13
2023-03-26T06:26:11.845Z,1.33
2023-03-26T06:29:13.984Z,1.48
2023-03-26T06:32:18.499Z,2.25
2023-03-26T06:35:03.186Z,1.80
2023-03-26T06:37:36.222Z,1.38
2023-03-26T06:40:10.191Z,1.50
2023-03-26T06:43:15.269Z,1.50
2023-03-26T06:46:07.092Z,1.27
2023-03-26T06:48:42.418Z,2.38
2023-03-26T06:51:25.573Z,1.83
2023-03-26T06:54:18.626Z,1.70
2023-03-26T06:57:14.740Z,1.50
2023-03-26T06:59:56.945Z,1.90
2023-03-26T07:02:48.794Z,1.38
2023-03-26T07:06:01.828Z,1.63
2023-03-26T07:09:00.852Z,1.55
2023-03-26T07:11:52.059Z,1.75
2023-03-26T07:14:43.616Z,1.20
2023-03-26T07:17:43.198Z,1.30
2023-03-26T07:20:21.584Z,1.85
2023-03-26T07:22:56.783Z,2.15
2023-03-26T07:25:59.378Z,2.00
2023-03-26T07:29:04.145Z,1.60
2023-03-26T07:32:04.187Z,1.73
2023-03-26T07:35:00.728Z,1.73
2023-03-26T07:37:55.533Z,2.58
2023-03-26T07:40:58.657Z,2.22
2023-03-26T07:44:35.254Z,1.45
2023-03-26T07:47:31.575Z,1.40
2023-03-26T07:50:23.862Z,1.75
2023-03-26T07:53:09.309Z,1.42
2023-03-26T07:56:03.843Z,1.90
2023-03-26T07:59:09.141Z,1.60
2023-03-26T08:02:37.349Z,2.22
2023-03-26T08:05:27.818Z,2.47
2023-03-26T08:08:27.243Z,1.80
2023-03-26T08:11:35.251Z,2.28
2023-03-26T08:14:21.722Z,1.98
2023-03-26T08:16:57.407Z,2.55
2023-03-26T08:19:43.156Z,1.95
2023-03-26T08:22:20.835Z,1.85
2023-03-26T08:25:07.663Z,2.42
2023-03-26T08:27:45.124Z,1.50
2023-03-26T08:30:21.576Z,1.55
2023-03-26T08:32:57.390Z,1.70
2023-03-26T08:35:31.027Z,1.95
2023-03-26T08:38:04.160Z,1.75
2023-03-26T08:41:15.425Z,1.70
2023-03-26T08:44:16.551Z,1.33
2023-03-26T08:47:14.737Z,1.63
2023-03-26T08:50:04.554Z,2.15
2023-03-26T08:53:19.539Z,0.55
2023-03-26T08:55:56.010Z,0.10
2023-03-26T08:59:15.472Z,0.00
2023-03-26T09:02:14.239Z,0.00
2023-03-26T09:05:32.969Z,0.00
2023-03-26T09:08:53.717Z,0.00
2023-03-26T09:11:54.943Z,0.00
2023-03-26T09:14:58.584Z,0.03
2023-03-26T09:18:14.011Z,0.00
2023-03-26T09:21:09.449Z,0.00
2023-03-26T09:24:06.768Z,0.00
2023-03-26T09:26:51.855Z,0.00
2023-03-26T09:30:24.588Z,0.00
2023-03-26T09:33:32.741Z,0.00
2023-03-26T09:36:31.657Z,0.00
2023-03-26T09:39:14.659Z,0.00
2023-03-26T09:42:00.623Z,0.00
2023-03-26T09:44:46.298Z,0.00
2023-03-26T09:47:47.032Z,0.00
2023-03-26T09:50:57.551Z,0.00
2023-03-26T09:53:53.624Z,0.00
2023-03-26T09:56:36.784Z,0.00
2023-03-26T09:59:36.501Z,0.10
2023-03-26T10:02:23.618Z,0.00
2023-03-26T10:05:28.911Z,0.00
2023-03-26T10:08:25.291Z,0.00
2023-03-26T10:11:04.427Z,0.00
2023-03-26T10:13:50.795Z,0.00
2023-03-26T10:16:33.560Z,0.00
2023-03-26T10:19:30.658Z,0.00
2023-03-26T10:22:13.892Z,0.00
2023-03-26T10:25:01.402Z,0.00
2023-03-26T10:27:44.402Z,0.00
2023-03-26T10:30:32.612Z,0.00
2023-03-26T10:33:15.882Z,0.08
2023-03-26T10:36:01.162Z,0.00
2023-03-26T10:38:51.577Z,0.00
2023-03-26T10:41:33.392Z,0.10
2023-03-26T10:44:30.989Z,0.00
2023-03-26T10:47:35.409Z,0.00
2023-03-26T10:50:30.432Z,0.05
2023-03-26T10:53:10.733Z,0.00
2023-03-26T10:55:46.951Z,0.00
2023-03-26T10:58:26.252Z,0.00
2023-03-26T11:01:04.880Z,0.03
2023-03-26T11:03:51.881Z,0.10
2023-03-26T11:06:40.016Z,0.00
2023-03-26T11:09:29.614Z,0.10
2023-03-26T11:12:26.518Z,0.00
2023-03-26T11:15:17.009Z,0.00
2023-03-26T11:17:59.979Z,0.00
2023-03-26T11:20:39.686Z,0.00
2023-03-26T11:23:27.954Z,0.10
2023-03-26T11:26:11.444Z,0.00
2023-03-26T11:29:32.579Z,0.05
2023-03-26T11:32:11.664Z,0.00
2023-03-26T11:34:49.704Z,0.00
2023-03-26T11:37:30.856Z,0.00
2023-03-26T11:40:12.565Z,0.40
2023-03-26T11:42:46.284Z,0.08
2023-03-26T11:45:22.940Z,0.00
2023-03-26T11:48:04.221Z,0.03
2023-03-26T11:50:43.913Z,0.00
2023-03-26T11:53:19.341Z,0.10
2023-03-26T11:55:59.050Z,0.25
2023-03-26T11:58:35.124Z,0.00
2023-03-26T12:01:15.863Z,0.00
2023-03-26T12:03:59.984Z,0.00
2023-03-26T12:06:33.226Z,0.00
2023-03-26T12:09:16.544Z,0.00
2023-03-26T12:11:51.506Z,0.00
2023-03-26T12:14:27.389Z,0.00
2023-03-26T12:17:03.899Z,0.00
2023-03-26T12:19:40.654Z,0.00
2023-03-26T12:22:36.122Z,0.52
2023-03-26T12:25:21.125Z,0.00
2023-03-26T12:28:02.951Z,0.00
2023-03-26T12:30:38.127Z,0.00
2023-03-26T12:33:18.237Z,0.15
2023-03-26T12:35:53.550Z,0.00
2023-03-26T12:38:34.504Z,0.95
2023-03-26T12:43:51.461Z,0.00
2023-03-26T12:44:49.858Z,0.00
2023-03-26T12:47:57.347Z,0.00
2023-03-26T12:50:15.625Z,0.00
2023-03-26T12:53:12.470Z,0.00
2023-03-26T12:55:57.497Z,0.00
2023-03-26T12:58:41.097Z,0.00
2023-03-26T13:01:25.552Z,0.00
2023-03-26T13:04:17.504Z,0.00
2023-03-26T13:07:01.817Z,0.00
2023-03-26T13:09:45.644Z,0.00
2023-03-26T13:12:30.451Z,1.27
2023-03-26T13:15:18.845Z,0.00
2023-03-26T13:18:03.709Z,0.32
2023-03-26T13:20:53.582Z,0.00
2023-03-26T13:23:37.010Z,0.00
2023-03-26T13:26:22.560Z,0.00
2023-03-26T13:29:07.100Z,0.00
2023-03-26T13:31:47.245Z,0.00
2023-03-26T13:34:33.453Z,0.00
2023-03-26T13:37:14.095Z,0.00
2023-03-26T13:39:58.761Z,0.00
2023-03-26T13:42:46.280Z,0.00
2023-03-26T13:45:34.888Z,0.88
2023-03-26T13:48:15.925Z,0.73
2023-03-26T13:50:58.388Z,0.70
2023-03-26T13:53:39.365Z,1.00
2023-03-26T13:56:16.360Z,0.60
2023-03-26T13:58:55.505Z,0.82
2023-03-26T14:01:34.953Z,0.63
2023-03-26T14:04:17.946Z,0.50
2023-03-26T14:06:58.542Z,0.90
2023-03-26T14:12:27.983Z,0.68
2023-03-26T14:15:04.336Z,1.05
2023-03-26T14:17:41.164Z,0.50
2023-03-26T14:20:53.524Z,0.75
2023-03-26T14:24:06.654Z,0.50
2023-03-26T14:26:59.378Z,0.47
2023-03-26T14:29:56.905Z,1.10
2023-03-26T14:32:47.703Z,0.60
2023-03-26T14:35:35.706Z,0.60
2023-03-26T14:38:41.984Z,0.57
2023-03-26T14:41:24.284Z,0.50
2023-03-26T14:44:48.431Z,0.63
2023-03-26T14:47:25.168Z,0.45
2023-03-26T14:50:42.699Z,1.02
2023-03-26T14:53:27.376Z,0.50
2023-03-26T14:56:44.042Z,0.40
2023-03-26T14:59:57.916Z,0.45
2023-03-26T15:03:03.075Z,0.85
2023-03-26T15:06:00.556Z,0.65
2023-03-26T15:09:09.274Z,0.73
2023-03-26T15:11:52.176Z,0.57
2023-03-26T15:14:44.953Z,0.75
2023-03-26T15:17:59.711Z,0.60
2023-03-26T15:21:02.335Z,0.60
2023-03-26T15:24:03.983Z,0.60
2023-03-26T15:27:19.707Z,0.50
2023-03-26T15:30:13.533Z,0.43
2023-03-26T15:33:27.916Z,0.40
2023-03-26T15:36:34.552Z,0.45
2023-03-26T15:39:38.279Z,0.70
2023-03-26T15:42:23.441Z,0.63
2023-03-26T15:45:05.924Z,0.50
2023-03-26T15:47:50.880Z,0.40
2023-03-26T15:50:33.385Z,0.40
2023-03-26T15:53:19.563Z,0.50
2023-03-26T15:56:27.921Z,0.93
2023-03-26T15:59:08.983Z,0.60
2023-03-26T16:02:02.521Z,0.57
2023-03-26T16:04:50.731Z,0.70
2023-03-26T16:07:55.108Z,0.50
2023-03-26T16:10:35.977Z,0.35
2023-03-26T16:13:40.792Z,0.50
2023-03-26T16:16:25.708Z,0.40
2023-03-26T16:19:19.426Z,0.55
2023-03-26T16:21:58.544Z,0.30
2023-03-26T16:24:34.764Z,0.55
2023-03-26T16:27:32.108Z,0.50
2023-03-26T16:30:30.598Z,1.23
2023-03-26T16:33:15.787Z,0.68
2023-03-26T16:36:04.780Z,0.80
2023-03-26T16:38:50.327Z,0.88
2023-03-26T16:41:27.246Z,0.70
2023-03-26T16:44:16.699Z,0.50
2023-03-26T16:47:01.558Z,0.50
2023-03-26T16:50:09.058Z,0.77
2023-03-26T16:52:52.319Z,0.50
2023-03-26T16:55:35.835Z,0.65
2023-03-26T16:58:21.990Z,0.70
2023-03-26T17:01:08.739Z,0.50
2023-03-26T17:03:51.676Z,0.50
2023-03-26T17:06:56.650Z,0.40
2023-03-26T17:09:38.087Z,0.32
2023-03-26T17:12:20.374Z,0.30
2023-03-26T17:15:07.638Z,0.47
2023-03-26T17:17:57.875Z,0.50
2023-03-26T17:20:38.669Z,0.40
2023-03-26T17:23:28.066Z,0.35
2023-03-26T17:26:07.413Z,0.47
2023-03-26T17:29:02.683Z,0.35
2023-03-26T17:31:41.876Z,0.30
2023-03-26T17:34:46.845Z,0.30
2023-03-26T17:37:45.748Z,0.30
2023-03-26T17:40:49.889Z,0.30
2023-03-26T17:43:43.098Z,0.15
2023-03-26T17:46:34.984Z,0.30
2023-03-26T17:49:17.247Z,0.22
2023-03-26T17:51:53.383Z,0.45
2023-03-26T17:54:32.302Z,0.55
2023-03-26T17:57:13.248Z,0.30
2023-03-26T17:59:47.126Z,0.28
2023-03-26T18:02:22.533Z,0.47
2023-03-26T18:04:56.719Z,0.50
2023-03-26T18:08:04.422Z,0.30
2023-03-26T18:11:05.690Z,0.45
2023-03-26T18:14:02.875Z,0.40
2023-03-26T18:16:40.769Z,0.50
2023-03-26T18:19:19.358Z,0.30
2023-03-26T18:21:54.284Z,0.40
2023-03-26T18:24:31.433Z,0.30
2023-03-26T18:27:09.073Z,0.28
2023-03-26T18:29:46.754Z,0.20
2023-03-26T18:32:23.347Z,0.32
2023-03-26T18:34:59.347Z,0.35
2023-03-26T18:37:34.493Z,0.20
2023-03-26T18:40:12.147Z,0.30
2023-03-26T18:42:49.161Z,0.30
2023-03-26T18:45:29.080Z,0.50
2023-03-26T18:48:06.072Z,0.40
2023-03-26T18:50:42.028Z,0.50
2023-03-26T18:53:20.459Z,0.70
2023-03-26T18:55:53.809Z,0.60
2023-03-26T18:58:30.893Z,0.73
2023-03-26T19:01:11.909Z,1.58
2023-03-26T19:03:50.592Z,0.77
2023-03-26T19:06:26.002Z,0.70
2023-03-26T19:08:59.860Z,0.88
2023-03-26T19:11:33.403Z,1.65
2023-03-26T19:14:17.117Z,1.00
2023-03-26T19:16:56.433Z,0.90
2023-03-26T19:19:33.712Z,1.00
2023-03-26T19:22:08.101Z,1.10
2023-03-26T19:24:42.494Z,0.90
2023-03-26T19:27:16.942Z,0.90
2023-03-26T19:29:51.807Z,0.77
2023-03-26T19:32:32.561Z,1.00
2023-03-26T19:35:19.724Z,0.88
2023-03-26T19:37:54.257Z,0.98
2023-03-26T19:40:30.089Z,0.70
2023-03-26T19:43:04.469Z,2.35
2023-03-26T19:45:39.748Z,1.33
2023-03-26T19:48:45.342Z,0.80
2023-03-26T19:51:22.179Z,0.70
2023-03-26T19:53:57.196Z,0.80
2023-03-26T19:56:30.535Z,0.90
2023-03-26T19:59:03.876Z,0.95
2023-03-26T20:01:38.426Z,1.65
2023-03-26T20:04:13.681Z,0.90
2023-03-26T20:06:49.164Z,1.27
2023-03-26T20:09:22.009Z,1.10
2023-03-26T20:11:54.827Z,0.90
2023-03-26T20:14:27.657Z,0.88
2023-03-26T20:17:02.098Z,0.88
2023-03-26T20:19:35.389Z,0.90
2023-03-26T20:22:13.609Z,1.20
2023-03-26T20:24:46.571Z,1.55
2023-03-26T20:27:19.890Z,1.33
2023-03-26T20:29:52.710Z,1.30
2023-03-26T20:32:27.478Z,1.10
2023-03-26T20:35:00.366Z,1.08
2023-03-26T20:37:33.430Z,1.30
2023-03-26T20:40:08.404Z,1.30
2023-03-26T20:42:42.835Z,1.00
2023-03-26T20:45:18.821Z,1.20
2023-03-26T20:47:53.660Z,1.52
2023-03-26T20:50:26.854Z,1.23
2023-03-26T20:53:02.464Z,1.25
2023-03-26T20:55:35.639Z,1.40
2023-03-26T20:58:13.279Z,1.05
2023-03-26T21:00:46.671Z,1.30
2023-03-26T21:03:20.972Z,1.38
2023-03-26T21:05:53.836Z,1.25
2023-03-26T21:08:30.212Z,0.90
2023-03-26T21:11:04.942Z,1.77
2023-03-26T21:13:41.344Z,1.10
2023-03-26T21:16:14.903Z,1.00
2023-03-26T21:18:50.125Z,1.20
2023-03-26T21:21:40.383Z,1.10
2023-03-26T21:24:22.982Z,1.20
2023-03-26T21:27:02.992Z,1.65
2023-03-26T21:29:36.955Z,1.50
2023-03-26T21:32:12.209Z,1.15
2023-03-26T21:34:57.513Z,1.40
2023-03-26T21:37:31.809Z,1.10
2023-03-26T21:40:14.128Z,1.30
2023-03-26T21:42:48.878Z,1.27
2023-03-26T21:45:23.020Z,1.33
2023-03-26T21:47:56.520Z,1.98
2023-03-26T21:50:31.775Z,1.00
2023-03-26T21:53:05.386Z,1.00
2023-03-26T21:55:52.160Z,1.20
2023-03-26T21:58:38.234Z,1.25
2023-03-26T22:01:22.119Z,1.40
2023-03-26T22:04:05.051Z,1.25
2023-03-26T22:06:44.866Z,1.10
2023-03-26T22:09:23.364Z,1.20
2023-03-26T22:11:59.733Z,1.30
2023-03-26T22:14:33.626Z,1.00
2023-03-26T22:17:06.705Z,0.98
2023-03-26T22:19:39.604Z,1.15
2023-03-26T22:22:14.912Z,0.93
2023-03-26T22:24:47.876Z,1.20
2023-03-26T22:27:20.884Z,0.90
2023-03-26T22:29:54.473Z,1.58
2023-03-26T22:32:27.451Z,2.25
2023-03-26T22:35:07.065Z,2.63
2023-03-26T22:37:41.985Z,2.88
2023-03-26T22:40:15.073Z,2.22
2023-03-26T22:42:47.925Z,2.50
2023-03-26T22:45:20.768Z,2.35
2023-03-26T22:47:53.624Z,2.00
2023-03-26T22:50:37.331Z,1.95
2023-03-26T22:53:11.747Z,0.90
2023-03-26T22:55:44.948Z,0.10
2023-03-26T22:58:18.092Z,0.20
2023-03-26T23:00:52.466Z,0.70
2023-03-26T23:03:35.068Z,0.00
2023-03-26T23:06:12.026Z,0.00
2023-03-26T23:08:46.439Z,0.00
2023-03-26T23:11:22.119Z,0.10
2023-03-26T23:13:54.998Z,0.00
2023-03-26T23:16:28.194Z,2.28
2023-03-26T23:19:01.523Z,0.10
2023-03-26T23:21:34.728Z,0.00
2023-03-26T23:24:09.282Z,0.10
2023-03-26T23:26:50.673Z,0.03
2023-03-26T23:29:25.092Z,0.65
2023-03-26T23:31:58.363Z,0.10
2023-03-26T23:34:32.031Z,0.00
2023-03-26T23:37:04.940Z,0.00
2023-03-26T23:39:39.252Z,0.00
2023-03-26T23:42:12.692Z,0.00
2023-03-26T23:44:46.369Z,0.10
2023-03-26T23:47:19.144Z,0.00
2023-03-26T23:49:52.254Z,0.00
2023-03-26T23:52:25.082Z,0.00
2023-03-26T23:54:59.937Z,0.00
2023-03-26T23:57:33.034Z,0.00
